createdAt,value
2023-01-29T00:00:38.394Z,-3.08
2023-01-29T00:01:38.662Z,-3.11
2023-01-29T00:02:38.026Z,-3.18
2023-01-29T00:03:38.358Z,-3.26
2023-01-29T00:04:38.573Z,-3.32
2023-01-29T00:05:38.854Z,-3.38
2023-01-29T00:06:39.192Z,-3.46
2023-01-29T00:07:39.666Z,-3.50
2023-01-29T00:08:39.521Z,-3.49
2023-01-29T00:09:39.788Z,-3.46
2023-01-29T00:10:41.098Z,-3.41
2023-01-29T00:11:40.357Z,-3.32
2023-01-29T00:12:40.712Z,-3.23
2023-01-29T00:13:41.221Z,-3.17
2023-01-29T00:14:41.026Z,-3.14
2023-01-29T00:15:41.357Z,-3.17
2023-01-29T00:16:41.730Z,-3.18
2023-01-29T00:17:42.037Z,-3.20
2023-01-29T00:18:43.359Z,-3.22
2023-01-29T00:19:42.664Z,-3.25
2023-01-29T00:20:42.925Z,-3.25
2023-01-29T00:21:43.184Z,-3.20
2023-01-29T00:22:43.568Z,-3.15
2023-01-29T00:23:43.853Z,-3.13
2023-01-29T00:24:45.049Z,-3.11
2023-01-29T00:25:44.417Z,-3.10
2023-01-29T00:26:44.660Z,-3.10
2023-01-29T00:27:45.081Z,-3.11
2023-01-29T00:28:45.386Z,-3.11
2023-01-29T00:29:45.647Z,-3.11
2023-01-29T00:30:45.946Z,-3.11
2023-01-29T00:31:46.380Z,-3.08
2023-01-29T00:32:46.733Z,-3.07
2023-01-29T00:33:47.108Z,-3.07
2023-01-29T00:34:47.371Z,-3.07
2023-01-29T00:35:48.624Z,-3.10
2023-01-29T00:36:48.887Z,-3.15
2023-01-29T00:37:48.215Z,-3.22
2023-01-29T00:38:48.486Z,-3.25
2023-01-29T00:39:48.805Z,-3.26
2023-01-29T00:40:49.137Z,-3.26
2023-01-29T00:41:49.465Z,-3.26
2023-01-29T00:42:49.710Z,-3.23
2023-01-29T00:43:50.113Z,-3.25
2023-01-29T00:44:50.395Z,-3.26
2023-01-29T00:45:50.698Z,-3.26
2023-01-29T00:46:51.068Z,-3.26
2023-01-29T00:47:51.367Z,-3.25
2023-01-29T00:48:51.732Z,-3.22
2023-01-29T00:49:52.144Z,-3.20
2023-01-29T00:50:52.428Z,-3.20
2023-01-29T00:51:52.765Z,-3.20
2023-01-29T00:52:53.065Z,-3.22
2023-01-29T00:53:53.469Z,-3.25
2023-01-29T00:54:53.758Z,-3.25
2023-01-29T00:55:54.078Z,-3.23
2023-01-29T00:56:54.716Z,-3.22
2023-01-29T00:57:54.532Z,-3.20
2023-01-29T00:58:55.014Z,-3.22
2023-01-29T00:59:57.296Z,-3.25
2023-01-29T01:00:55.609Z,-3.28
2023-01-29T01:01:55.967Z,-3.31
2023-01-29T01:02:56.288Z,-3.36
2023-01-29T01:03:56.636Z,-3.44
2023-01-29T01:04:56.956Z,-3.46
2023-01-29T01:05:57.190Z,-3.47
2023-01-29T01:06:57.462Z,-3.47
2023-01-29T01:07:57.708Z,-3.56
2023-01-29T01:08:59.009Z,-3.65
2023-01-29T01:09:58.292Z,-3.75
2023-01-29T01:10:59.509Z,-3.83
2023-01-29T01:11:58.757Z,-3.89
2023-01-29T01:12:59.039Z,-3.93
2023-01-29T01:13:59.387Z,-3.93
2023-01-29T01:14:59.634Z,-3.93
2023-01-29T01:15:59.888Z,-3.90
2023-01-29T01:17:00.184Z,-3.87
2023-01-29T01:18:00.544Z,-3.87
2023-01-29T01:19:00.981Z,-3.80
2023-01-29T01:20:01.311Z,-3.68
2023-01-29T01:21:26.413Z,-3.64
2023-01-29T01:22:27.301Z,-3.64
2023-01-29T01:23:26.667Z,-3.62
2023-01-29T01:24:27.937Z,-3.67
2023-01-29T01:25:27.351Z,-3.70
2023-01-29T01:26:27.597Z,-3.70
2023-01-29T01:27:28.851Z,-3.76
2023-01-29T01:28:28.121Z,-3.78
2023-01-29T01:29:28.492Z,-3.78
2023-01-29T01:30:28.808Z,-3.78
2023-01-29T01:31:29.335Z,-3.80
2023-01-29T01:32:29.173Z,-3.83
2023-01-29T01:33:29.438Z,-3.81
2023-01-29T01:34:30.731Z,-3.81
2023-01-29T01:35:30.066Z,-3.81
2023-01-29T01:36:30.362Z,-3.80
2023-01-29T01:37:31.694Z,-3.83
2023-01-29T01:38:31.026Z,-3.83
2023-01-29T01:39:31.320Z,-3.86
2023-01-29T01:40:31.625Z,-3.86
2023-01-29T01:41:31.892Z,-3.89
2023-01-29T01:42:32.190Z,-3.87
2023-01-29T01:43:33.476Z,-3.90
2023-01-29T01:44:32.731Z,-3.91
2023-01-29T01:45:33.083Z,-3.96
2023-01-29T01:46:34.397Z,-4.01
2023-01-29T01:47:33.706Z,-4.05
2023-01-29T01:48:33.928Z,-4.07
2023-01-29T01:49:34.234Z,-4.08
2023-01-29T01:50:34.555Z,-4.11
2023-01-29T01:51:34.865Z,-4.15
2023-01-29T01:52:35.136Z,-4.20
2023-01-29T01:53:35.497Z,-4.26
2023-01-29T01:54:35.909Z,-4.30
2023-01-29T01:55:36.266Z,-4.30
2023-01-29T01:56:36.701Z,-4.37
2023-01-29T01:57:36.980Z,-4.44
2023-01-29T01:58:37.385Z,-4.46
2023-01-29T01:59:37.702Z,-4.50
2023-01-29T02:00:38.086Z,-4.54
2023-01-29T02:01:38.734Z,-4.51
2023-01-29T02:02:38.555Z,-4.44
2023-01-29T02:03:38.824Z,-4.37
2023-01-29T02:04:40.163Z,-4.25
2023-01-29T02:05:39.443Z,-4.15
2023-01-29T02:06:39.650Z,-4.11
2023-01-29T02:07:39.991Z,-4.08
2023-01-29T02:08:41.314Z,-4.05
2023-01-29T02:09:40.574Z,-4.04
2023-01-29T02:10:40.825Z,-4.04
2023-01-29T02:11:41.118Z,-4.11
2023-01-29T02:12:41.430Z,-4.14
2023-01-29T02:13:41.724Z,-4.14
2023-01-29T02:14:42.087Z,-4.12
2023-01-29T02:15:42.359Z,-4.12
2023-01-29T02:16:42.664Z,-4.12
2023-01-29T02:17:43.001Z,-4.14
2023-01-29T02:18:43.245Z,-4.14
2023-01-29T02:19:44.468Z,-4.19
2023-01-29T02:20:44.341Z,-4.22
2023-01-29T02:21:43.709Z,-4.22
2023-01-29T02:22:44.018Z,-4.22
2023-01-29T02:23:44.310Z,-4.22
2023-01-29T02:24:44.619Z,-4.23
2023-01-29T02:25:44.912Z,-4.25
2023-01-29T02:26:45.236Z,-4.26
2023-01-29T02:27:45.490Z,-4.28
2023-01-29T02:28:45.752Z,-4.32
2023-01-29T02:29:46.016Z,-4.33
2023-01-29T02:30:46.272Z,-4.33
2023-01-29T02:31:46.563Z,-4.37
2023-01-29T02:32:46.907Z,-4.37
2023-01-29T02:33:47.208Z,-4.32
2023-01-29T02:34:47.554Z,-4.32
2023-01-29T02:35:47.792Z,-4.19
2023-01-29T02:36:48.065Z,-4.08
2023-01-29T02:37:48.353Z,-4.07
2023-01-29T02:38:48.578Z,-4.08
2023-01-29T02:39:48.922Z,-4.09
2023-01-29T02:40:49.196Z,-4.15
2023-01-29T02:41:49.431Z,-4.19
2023-01-29T02:42:49.724Z,-4.22
2023-01-29T02:43:49.999Z,-4.20
2023-01-29T02:44:50.286Z,-4.20
2023-01-29T02:45:50.635Z,-4.20
2023-01-29T02:46:50.870Z,-4.19
2023-01-29T02:47:51.185Z,-4.15
2023-01-29T02:48:51.448Z,-4.09
2023-01-29T02:49:51.870Z,-4.07
2023-01-29T02:50:52.161Z,-4.07
2023-01-29T02:51:52.382Z,-4.12
2023-01-29T02:52:52.653Z,-4.15
2023-01-29T02:53:52.967Z,-4.20
2023-01-29T02:54:53.242Z,-4.26
2023-01-29T02:55:53.484Z,-4.26
2023-01-29T02:56:53.793Z,-4.28
2023-01-29T02:57:54.130Z,-4.29
2023-01-29T02:58:54.348Z,-4.26
2023-01-29T02:59:54.626Z,-4.23
2023-01-29T03:00:54.877Z,-4.19
2023-01-29T03:01:55.263Z,-4.18
2023-01-29T03:02:55.615Z,-4.12
2023-01-29T03:03:55.878Z,-4.09
2023-01-29T03:04:56.633Z,-4.08
2023-01-29T03:05:56.478Z,-4.07
2023-01-29T03:06:56.745Z,-4.05
2023-01-29T03:07:57.013Z,-4.01
2023-01-29T03:08:57.321Z,-3.98
2023-01-29T03:09:57.626Z,-3.96
2023-01-29T03:10:57.953Z,-3.94
2023-01-29T03:11:58.216Z,-3.98
2023-01-29T03:12:58.478Z,-3.94
2023-01-29T03:13:58.724Z,-3.89
2023-01-29T03:14:59.046Z,-3.81
2023-01-29T03:15:59.498Z,-3.72
2023-01-29T03:16:59.792Z,-3.68
2023-01-29T03:18:00.068Z,-3.64
2023-01-29T03:19:00.332Z,-3.61
2023-01-29T03:20:00.622Z,-3.56
2023-01-29T03:21:01.047Z,-3.51
2023-01-29T03:22:01.385Z,-3.47
2023-01-29T03:23:01.690Z,-3.43
2023-01-29T03:24:01.920Z,-3.41
2023-01-29T03:25:02.214Z,-3.41
2023-01-29T03:26:02.727Z,-3.41
2023-01-29T03:27:02.561Z,-3.38
2023-01-29T03:28:02.881Z,-3.36
2023-01-29T03:29:02.685Z,-3.33
2023-01-29T03:30:03.065Z,-3.33
2023-01-29T03:31:04.197Z,-3.31
2023-01-29T03:32:03.604Z,-3.29
2023-01-29T03:33:04.751Z,-3.26
2023-01-29T03:34:04.885Z,-3.26
2023-01-29T03:35:05.059Z,-3.26
2023-01-29T03:36:05.237Z,-3.28
2023-01-29T03:37:05.667Z,-3.26
2023-01-29T03:38:05.922Z,-3.22
2023-01-29T03:39:06.730Z,-3.18
2023-01-29T03:40:06.410Z,-3.14
2023-01-29T03:41:07.157Z,-3.08
2023-01-29T03:42:07.063Z,-3.05
2023-01-29T03:43:07.440Z,-3.00
2023-01-29T03:44:07.463Z,-2.94
2023-01-29T03:45:07.737Z,-2.90
2023-01-29T03:46:07.870Z,-2.86
2023-01-29T03:47:08.646Z,-2.86
2023-01-29T03:48:08.898Z,-2.82
2023-01-29T03:49:08.794Z,-2.78
2023-01-29T03:50:09.562Z,-2.78
2023-01-29T03:51:09.514Z,-2.75
2023-01-29T03:52:10.232Z,-2.71
2023-01-29T03:53:10.085Z,-2.72
2023-01-29T03:54:10.339Z,-2.72
2023-01-29T03:55:11.062Z,-2.74
2023-01-29T03:56:10.656Z,-2.72
2023-01-29T03:57:11.375Z,-2.71
2023-01-29T03:58:11.604Z,-2.68
2023-01-29T03:59:11.155Z,-2.63
2023-01-29T04:00:11.861Z,-2.57
2023-01-29T04:01:11.680Z,-2.56
2023-01-29T04:02:11.002Z,-2.54
2023-01-29T04:03:11.288Z,-2.53
2023-01-29T04:04:13.734Z,-2.50
2023-01-29T04:05:13.215Z,-2.48
2023-01-29T04:06:12.549Z,-2.43
2023-01-29T04:07:14.242Z,-2.40
2023-01-29T04:08:13.028Z,-2.38
2023-01-29T04:09:13.328Z,-2.33
2023-01-29T04:10:13.694Z,-2.29
2023-01-29T04:11:14.992Z,-2.28
2023-01-29T04:12:14.252Z,-2.26
2023-01-29T04:13:14.573Z,-2.26
2023-01-29T04:14:14.898Z,-2.26
2023-01-29T04:15:15.144Z,-2.21
2023-01-29T04:16:15.486Z,-2.18
2023-01-29T04:17:15.921Z,-2.16
2023-01-29T04:18:16.244Z,-2.13
2023-01-29T04:19:16.749Z,-2.11
2023-01-29T04:20:16.805Z,-2.08
2023-01-29T04:21:16.715Z,-2.06
2023-01-29T04:22:16.932Z,-2.06
2023-01-29T04:23:17.197Z,-2.10
2023-01-29T04:24:17.580Z,-2.08
2023-01-29T04:25:18.916Z,-2.08
2023-01-29T04:26:19.188Z,-2.08
2023-01-29T04:27:18.597Z,-2.06
2023-01-29T04:28:19.911Z,-2.03
2023-01-29T04:29:18.716Z,-2.05
2023-01-29T04:30:19.985Z,-2.02
2023-01-29T04:31:19.357Z,-2.02
2023-01-29T04:32:19.746Z,-2.00
2023-01-29T04:33:20.048Z,-1.98
2023-01-29T04:34:20.309Z,-1.98
2023-01-29T04:35:21.604Z,-1.95
2023-01-29T04:36:20.939Z,-1.95
2023-01-29T04:37:22.259Z,-1.95
2023-01-29T04:38:22.558Z,-1.93
2023-01-29T04:39:21.892Z,-1.95
2023-01-29T04:40:22.143Z,-1.95
2023-01-29T04:41:22.411Z,-1.92
2023-01-29T04:42:22.790Z,-1.88
2023-01-29T04:43:24.185Z,-1.88
2023-01-29T04:44:24.478Z,-1.88
2023-01-29T04:45:24.672Z,-1.88
2023-01-29T04:46:24.889Z,-1.90
2023-01-29T04:47:26.146Z,-1.88
2023-01-29T04:48:25.408Z,-1.87
2023-01-29T04:49:24.671Z,-1.85
2023-01-29T04:50:25.954Z,-1.84
2023-01-29T04:51:26.147Z,-1.82
2023-01-29T04:52:26.447Z,-1.81
2023-01-29T04:53:26.716Z,-1.81
2023-01-29T04:54:27.945Z,-1.81
2023-01-29T04:55:26.229Z,-1.84
2023-01-29T04:56:26.438Z,-1.84
2023-01-29T04:57:27.690Z,-1.85
2023-01-29T04:58:27.922Z,-1.85
2023-01-29T04:59:28.147Z,-1.87
2023-01-29T05:00:27.542Z,-1.88
2023-01-29T05:01:28.744Z,-1.88
2023-01-29T05:02:29.129Z,-1.90
2023-01-29T05:03:28.501Z,-1.95
2023-01-29T05:04:29.697Z,-1.95
2023-01-29T05:05:29.034Z,-1.96
2023-01-29T05:06:29.466Z,-1.99
2023-01-29T05:07:29.750Z,-1.99
2023-01-29T05:08:30.030Z,-1.99
2023-01-29T05:09:30.312Z,-1.99
2023-01-29T05:10:30.614Z,-1.98
2023-01-29T05:11:30.867Z,-1.96
2023-01-29T05:12:32.056Z,-1.96
2023-01-29T05:13:33.248Z,-1.96
2023-01-29T05:14:31.527Z,-1.98
2023-01-29T05:15:31.774Z,-1.96
2023-01-29T05:16:32.012Z,-1.98
2023-01-29T05:17:34.276Z,-1.98
2023-01-29T05:18:33.449Z,-1.98
2023-01-29T05:19:32.768Z,-1.96
2023-01-29T05:20:33.011Z,-1.98
2023-01-29T05:21:34.223Z,-1.96
2023-01-29T05:22:33.504Z,-1.95
2023-01-29T05:23:33.847Z,-1.95
2023-01-29T05:24:34.181Z,-1.92
2023-01-29T05:25:35.578Z,-1.92
2023-01-29T05:26:36.865Z,-1.90
2023-01-29T05:27:35.075Z,-1.90
2023-01-29T05:28:35.301Z,-1.88
2023-01-29T05:29:35.616Z,-1.85
2023-01-29T05:30:35.908Z,-1.85
2023-01-29T05:31:36.212Z,-1.80
2023-01-29T05:32:36.453Z,-1.78
2023-01-29T05:33:37.249Z,-1.75
2023-01-29T05:34:37.150Z,-1.74
2023-01-29T05:35:39.393Z,-1.74
2023-01-29T05:36:37.635Z,-1.74
2023-01-29T05:37:37.917Z,-1.72
2023-01-29T05:38:38.150Z,-1.72
2023-01-29T05:39:39.395Z,-1.70
2023-01-29T05:40:40.274Z,-1.69
2023-01-29T05:41:39.114Z,-1.67
2023-01-29T05:42:39.381Z,-1.63
2023-01-29T05:43:39.634Z,-1.63
2023-01-29T05:44:39.863Z,-1.64
2023-01-29T05:45:40.123Z,-1.64
2023-01-29T05:46:40.426Z,-1.67
2023-01-29T05:47:40.682Z,-1.64
2023-01-29T05:48:41.023Z,-1.64
2023-01-29T05:49:41.275Z,-1.62
2023-01-29T05:50:41.673Z,-1.60
2023-01-29T05:51:41.959Z,-1.59
2023-01-29T05:52:43.183Z,-1.57
2023-01-29T05:53:42.530Z,-1.59
2023-01-29T05:54:43.824Z,-1.57
2023-01-29T05:55:46.040Z,-1.54
2023-01-29T05:56:43.331Z,-1.54
2023-01-29T05:57:43.602Z,-1.53
2023-01-29T05:58:45.963Z,-1.53
2023-01-29T05:59:45.295Z,-1.53
2023-01-29T06:00:44.571Z,-1.51
2023-01-29T06:01:44.860Z,-1.54
2023-01-29T06:02:46.113Z,-1.59
2023-01-29T06:03:46.311Z,-1.59
2023-01-29T06:04:46.539Z,-1.60
2023-01-29T06:05:45.893Z,-1.60
2023-01-29T06:06:48.574Z,-1.62
2023-01-29T06:07:46.344Z,-1.62
2023-01-29T06:08:46.660Z,-1.63
2023-01-29T06:09:48.859Z,-1.63
2023-01-29T06:10:48.065Z,-1.62
2023-01-29T06:11:47.416Z,-1.60
2023-01-29T06:12:47.723Z,-1.62
2023-01-29T06:13:48.116Z,-1.62
2023-01-29T06:14:49.330Z,-1.60
2023-01-29T06:15:48.754Z,-1.60
2023-01-29T06:16:49.096Z,-1.57
2023-01-29T06:17:50.301Z,-1.56
2023-01-29T06:18:49.598Z,-1.54
2023-01-29T06:19:49.907Z,-1.56
2023-01-29T06:20:50.421Z,-1.51
2023-01-29T06:21:51.214Z,-1.51
2023-01-29T06:22:50.552Z,-1.49
2023-01-29T06:23:50.829Z,-1.51
2023-01-29T06:24:52.126Z,-1.48
2023-01-29T06:25:51.521Z,-1.46
2023-01-29T06:26:51.788Z,-1.48
2023-01-29T06:27:53.104Z,-1.46
2023-01-29T06:28:52.415Z,-1.48
2023-01-29T06:29:52.783Z,-1.46
2023-01-29T06:30:53.149Z,-1.45
2023-01-29T06:31:53.617Z,-1.43
2023-01-29T06:32:53.458Z,-1.42
2023-01-29T06:33:55.755Z,-1.43
2023-01-29T06:34:54.064Z,-1.43
2023-01-29T06:35:55.244Z,-1.45
2023-01-29T06:36:55.667Z,-1.45
2023-01-29T06:37:54.676Z,-1.45
2023-01-29T06:38:54.949Z,-1.43
2023-01-29T06:39:55.215Z,-1.43
2023-01-29T06:40:55.472Z,-1.43
2023-01-29T06:41:55.759Z,-1.42
2023-01-29T06:42:56.088Z,-1.42
2023-01-29T06:43:56.421Z,-1.42
2023-01-29T06:44:56.713Z,-1.42
2023-01-29T06:45:57.011Z,-1.45
2023-01-29T06:46:57.361Z,-1.42
2023-01-29T06:48:01.136Z,-1.43
2023-01-29T06:48:57.705Z,-1.43
2023-01-29T06:49:58.295Z,-1.43
2023-01-29T06:50:59.014Z,-1.43
2023-01-29T06:51:58.338Z,-1.45
2023-01-29T06:52:58.793Z,-1.45
2023-01-29T06:53:58.685Z,-1.45
2023-01-29T06:54:58.934Z,-1.45
2023-01-29T06:55:59.147Z,-1.46
2023-01-29T06:56:59.416Z,-1.48
2023-01-29T06:57:59.652Z,-1.46
2023-01-29T06:58:59.883Z,-1.45
2023-01-29T07:00:00.203Z,-1.45
2023-01-29T07:01:01.430Z,-1.43
2023-01-29T07:02:00.875Z,-1.43
2023-01-29T07:03:01.156Z,-1.42
2023-01-29T07:04:02.422Z,-1.42
2023-01-29T07:05:01.641Z,-1.43
2023-01-29T07:06:03.917Z,-1.43
2023-01-29T07:07:02.452Z,-1.45
2023-01-29T07:08:03.150Z,-1.42
2023-01-29T07:09:03.894Z,-1.39
2023-01-29T07:10:03.596Z,-1.41
2023-01-29T07:11:02.818Z,-1.38
2023-01-29T07:12:04.108Z,-1.36
2023-01-29T07:13:05.306Z,-1.35
2023-01-29T07:14:03.543Z,-1.33
2023-01-29T07:15:03.810Z,-1.30
2023-01-29T07:16:04.047Z,-1.30
2023-01-29T07:17:06.398Z,-1.28
2023-01-29T07:18:04.644Z,-1.28
2023-01-29T07:19:04.940Z,-1.28
2023-01-29T07:20:06.166Z,-1.30
2023-01-29T07:21:06.572Z,-1.30
2023-01-29T07:22:05.395Z,-1.28
2023-01-29T07:23:05.648Z,-1.28
2023-01-29T07:24:06.009Z,-1.28
2023-01-29T07:25:07.264Z,-1.27
2023-01-29T07:26:07.496Z,-1.28
2023-01-29T07:27:08.337Z,-1.28
2023-01-29T07:28:07.109Z,-1.27
2023-01-29T07:29:08.344Z,-1.28
2023-01-29T07:30:08.683Z,-1.28
2023-01-29T07:31:08.080Z,-1.27
2023-01-29T07:32:08.513Z,-1.28
2023-01-29T07:33:08.860Z,-1.28
2023-01-29T07:34:09.269Z,-1.27
2023-01-29T07:35:10.541Z,-1.24
2023-01-29T07:36:11.796Z,-1.24
2023-01-29T07:37:11.073Z,-1.20
2023-01-29T07:38:10.365Z,-1.18
2023-01-29T07:39:10.735Z,-1.18
2023-01-29T07:40:11.023Z,-1.17
2023-01-29T07:41:11.466Z,-1.15
2023-01-29T07:42:11.863Z,-1.13
2023-01-29T07:43:12.139Z,-1.10
2023-01-29T07:44:12.389Z,-1.09
2023-01-29T07:45:12.736Z,-1.07
2023-01-29T07:46:13.050Z,-1.05
2023-01-29T07:47:17.036Z,-1.03
2023-01-29T07:48:13.592Z,-1.06
2023-01-29T07:49:14.123Z,-1.06
2023-01-29T07:50:14.027Z,-1.06
2023-01-29T07:51:14.423Z,-1.10
2023-01-29T07:52:14.744Z,-1.10
2023-01-29T07:53:14.983Z,-1.09
2023-01-29T07:54:16.322Z,-1.07
2023-01-29T07:55:15.639Z,-1.09
2023-01-29T07:56:15.860Z,-1.06
2023-01-29T07:57:17.095Z,-1.05
2023-01-29T07:58:18.337Z,-1.03
2023-01-29T07:59:16.622Z,-1.03
2023-01-29T08:00:18.191Z,-1.05
2023-01-29T08:01:19.204Z,-1.03
2023-01-29T08:02:19.444Z,-1.02
2023-01-29T08:03:18.643Z,-1.00
2023-01-29T08:04:18.833Z,-1.00
2023-01-29T08:05:19.055Z,-1.00
2023-01-29T08:06:20.298Z,-1.03
2023-01-29T08:07:19.628Z,-1.06
2023-01-29T08:08:18.897Z,-1.05
2023-01-29T08:09:19.250Z,-1.00
2023-01-29T08:10:19.761Z,-1.00
2023-01-29T08:11:21.047Z,-0.99
2023-01-29T08:12:19.895Z,-0.99
2023-01-29T08:13:21.384Z,-0.99
2023-01-29T08:14:21.230Z,-0.97
2023-01-29T08:15:21.638Z,-0.95
2023-01-29T08:16:21.821Z,-0.99
2023-01-29T08:17:21.266Z,-0.94
2023-01-29T08:18:21.041Z,-0.94
2023-01-29T08:19:21.488Z,-0.91
2023-01-29T08:20:22.688Z,-0.89
2023-01-29T08:21:23.915Z,-0.86
2023-01-29T08:22:22.206Z,-0.84
2023-01-29T08:23:22.468Z,-0.78
2023-01-29T08:24:24.343Z,-0.75
2023-01-29T08:25:25.269Z,-0.72
2023-01-29T08:26:23.334Z,-0.72
2023-01-29T08:27:25.695Z,-0.70
2023-01-29T08:28:24.029Z,-0.69
2023-01-29T08:29:25.863Z,-0.70
2023-01-29T08:30:25.527Z,-0.69
2023-01-29T08:31:24.855Z,-0.72
2023-01-29T08:32:25.174Z,-0.73
2023-01-29T08:33:30.067Z,-0.70
2023-01-29T08:34:25.707Z,-0.70
2023-01-29T08:35:25.593Z,-0.70
2023-01-29T08:36:26.144Z,-0.69
2023-01-29T08:37:26.035Z,-0.68
2023-01-29T08:38:27.272Z,-0.65
2023-01-29T08:39:26.530Z,-0.63
2023-01-29T08:40:26.826Z,-0.62
2023-01-29T08:41:27.212Z,-0.57
2023-01-29T08:42:27.588Z,-0.52
2023-01-29T08:43:28.853Z,-0.50
2023-01-29T08:44:28.176Z,-0.54
2023-01-29T08:45:28.419Z,-0.52
2023-01-29T08:46:28.720Z,-0.54
2023-01-29T08:47:29.721Z,-0.54
2023-01-29T08:48:31.204Z,-0.59
2023-01-29T08:49:29.540Z,-0.59
2023-01-29T08:50:30.168Z,-0.60
2023-01-29T08:51:30.925Z,-0.59
2023-01-29T08:52:31.293Z,-0.60
2023-01-29T08:53:31.655Z,-0.52
2023-01-29T08:54:31.009Z,-0.54
2023-01-29T08:55:31.306Z,-0.51
2023-01-29T08:56:31.552Z,-0.50
2023-01-29T08:57:32.763Z,-0.48
2023-01-29T08:58:32.016Z,-0.45
2023-01-29T08:59:32.285Z,-0.44
2023-01-29T09:00:32.547Z,-0.41
2023-01-29T09:01:32.866Z,-0.39
2023-01-29T09:02:35.415Z,-0.37
2023-01-29T09:03:33.782Z,-0.39
2023-01-29T09:04:35.091Z,-0.41
2023-01-29T09:05:34.480Z,-0.44
2023-01-29T09:06:34.815Z,-0.45
2023-01-29T09:07:36.022Z,-0.45
2023-01-29T09:08:35.315Z,-0.47
2023-01-29T09:09:35.693Z,-0.47
2023-01-29T09:10:38.026Z,-0.48
2023-01-29T09:11:36.258Z,-0.47
2023-01-29T09:12:36.519Z,-0.47
2023-01-29T09:13:37.634Z,-0.44
2023-01-29T09:14:36.899Z,-0.39
2023-01-29T09:15:38.149Z,-0.41
2023-01-29T09:16:37.410Z,-0.42
2023-01-29T09:17:39.898Z,-0.42
2023-01-29T09:18:38.551Z,-0.42
2023-01-29T09:19:38.077Z,-0.42
2023-01-29T09:20:37.839Z,-0.44
2023-01-29T09:21:40.234Z,-0.44
2023-01-29T09:22:39.583Z,-0.48
2023-01-29T09:23:39.863Z,-0.48
2023-01-29T09:24:41.290Z,-0.48
2023-01-29T09:25:40.598Z,-0.50
2023-01-29T09:26:41.856Z,-0.48
2023-01-29T09:27:41.183Z,-0.48
2023-01-29T09:28:40.609Z,-0.44
2023-01-29T09:29:41.941Z,-0.44
2023-01-29T09:30:42.317Z,-0.39
2023-01-29T09:31:42.649Z,-0.36
2023-01-29T09:32:53.719Z,-0.30
2023-01-29T09:33:42.117Z,-0.26
2023-01-29T09:34:42.878Z,-0.19
2023-01-29T09:35:43.641Z,-0.16
2023-01-29T09:36:44.574Z,-0.12
2023-01-29T09:37:43.300Z,-0.11
2023-01-29T09:38:44.479Z,-0.11
2023-01-29T09:39:43.738Z,-0.08
2023-01-29T09:40:43.992Z,-0.04
2023-01-29T09:41:44.214Z,0.03
2023-01-29T09:42:45.585Z,0.09
2023-01-29T09:43:44.856Z,0.15
2023-01-29T09:44:45.131Z,0.20
2023-01-29T09:45:45.501Z,0.24
2023-01-29T09:46:46.832Z,0.27
2023-01-29T09:47:46.126Z,0.28
2023-01-29T09:48:46.377Z,0.30
2023-01-29T09:49:47.542Z,0.31
2023-01-29T09:50:47.964Z,0.31
2023-01-29T09:51:47.220Z,0.31
2023-01-29T09:52:47.398Z,0.33
2023-01-29T09:53:47.638Z,0.39
2023-01-29T09:54:47.911Z,0.45
2023-01-29T09:55:48.212Z,0.48
2023-01-29T09:56:48.495Z,0.53
2023-01-29T09:57:49.695Z,0.53
2023-01-29T09:58:48.924Z,0.51
2023-01-29T09:59:49.184Z,0.46
2023-01-29T10:00:50.517Z,0.48
2023-01-29T10:01:51.861Z,0.49
2023-01-29T10:02:50.306Z,0.51
2023-01-29T10:03:51.143Z,0.52
2023-01-29T10:04:51.374Z,0.51
2023-01-29T10:05:51.643Z,0.51
2023-01-29T10:06:52.476Z,0.52
2023-01-29T10:07:51.240Z,0.52
2023-01-29T10:08:53.721Z,0.52
2023-01-29T10:09:51.484Z,0.53
2023-01-29T10:10:51.910Z,0.57
2023-01-29T10:11:52.282Z,0.58
2023-01-29T10:12:52.590Z,0.61
2023-01-29T10:13:53.752Z,0.67
2023-01-29T10:14:53.136Z,0.70
2023-01-29T10:15:53.438Z,0.76
2023-01-29T10:16:56.234Z,0.80
2023-01-29T10:17:56.057Z,0.82
2023-01-29T10:18:55.831Z,0.85
2023-01-29T10:19:56.602Z,0.89
2023-01-29T10:20:54.895Z,0.92
2023-01-29T10:21:56.235Z,0.94
2023-01-29T10:22:55.538Z,0.94
2023-01-29T10:23:55.561Z,0.98
2023-01-29T10:24:55.816Z,1.04
2023-01-29T10:25:57.172Z,1.08
2023-01-29T10:26:58.377Z,1.06
2023-01-29T10:27:57.601Z,1.08
2023-01-29T10:28:57.878Z,1.18
2023-01-29T10:29:57.306Z,1.24
2023-01-29T10:30:57.666Z,1.29
2023-01-29T10:31:59.050Z,1.39
2023-01-29T10:32:58.413Z,1.44
2023-01-29T10:34:02.593Z,1.46
2023-01-29T10:34:58.685Z,1.44
2023-01-29T10:35:59.924Z,1.43
2023-01-29T10:37:01.289Z,1.34
2023-01-29T10:38:01.476Z,1.29
2023-01-29T10:38:59.879Z,1.25
2023-01-29T10:40:00.479Z,1.24
2023-01-29T10:41:00.230Z,1.22
2023-01-29T10:42:00.502Z,1.18
2023-01-29T10:43:00.731Z,1.16
2023-01-29T10:44:00.966Z,1.19
2023-01-29T10:45:01.302Z,1.24
2023-01-29T10:46:01.591Z,1.26
2023-01-29T10:47:02.805Z,1.28
2023-01-29T10:48:02.196Z,1.32
2023-01-29T10:49:02.034Z,1.29
2023-01-29T10:50:04.331Z,1.34
2023-01-29T10:51:02.580Z,1.39
2023-01-29T10:52:04.774Z,1.44
2023-01-29T10:53:05.034Z,1.50
2023-01-29T10:54:04.277Z,1.50
2023-01-29T10:55:03.626Z,1.51
2023-01-29T10:56:10.722Z,1.54
2023-01-29T10:57:06.461Z,1.55
2023-01-29T10:58:06.202Z,1.55
2023-01-29T10:59:04.967Z,1.55
2023-01-29T11:00:05.497Z,1.55
2023-01-29T11:01:07.748Z,1.55
2023-01-29T11:02:07.434Z,1.54
2023-01-29T11:03:12.474Z,1.54
2023-01-29T11:04:06.472Z,1.57
2023-01-29T11:05:07.682Z,1.58
2023-01-29T11:06:08.944Z,1.55
2023-01-29T11:07:08.068Z,1.55
2023-01-29T11:08:07.489Z,1.55
2023-01-29T11:09:08.767Z,1.55
2023-01-29T11:10:08.972Z,1.58
2023-01-29T11:11:09.278Z,1.55
2023-01-29T11:12:09.086Z,1.60
2023-01-29T11:13:08.851Z,1.61
2023-01-29T11:14:11.130Z,1.64
2023-01-29T11:15:09.434Z,1.60
2023-01-29T11:16:10.612Z,1.61
2023-01-29T11:17:09.992Z,1.60
2023-01-29T11:18:11.500Z,1.61
2023-01-29T11:19:10.355Z,1.61
2023-01-29T11:20:10.670Z,1.61
2023-01-29T11:21:11.879Z,1.61
2023-01-29T11:22:11.178Z,1.55
2023-01-29T11:23:12.233Z,1.52
2023-01-29T11:24:12.391Z,1.54
2023-01-29T11:25:11.626Z,1.57
2023-01-29T11:26:11.895Z,1.60
2023-01-29T11:27:12.236Z,1.64
2023-01-29T11:28:12.620Z,1.69
2023-01-29T11:29:13.927Z,1.72
2023-01-29T11:30:13.156Z,1.71
2023-01-29T11:31:14.560Z,1.65
2023-01-29T11:32:13.884Z,1.64
2023-01-29T11:33:14.148Z,1.61
2023-01-29T11:34:14.507Z,1.62
2023-01-29T11:35:14.777Z,1.64
2023-01-29T11:36:16.568Z,1.68
2023-01-29T11:37:15.471Z,1.68
2023-01-29T11:38:15.823Z,1.68
2023-01-29T11:39:16.078Z,1.69
2023-01-29T11:40:17.189Z,1.75
2023-01-29T11:41:16.729Z,1.75
2023-01-29T11:42:16.973Z,1.73
2023-01-29T11:43:17.348Z,1.75
2023-01-29T11:44:17.704Z,1.79
2023-01-29T11:45:18.986Z,1.82
2023-01-29T11:46:18.339Z,1.76
2023-01-29T11:47:18.695Z,1.78
2023-01-29T11:48:18.998Z,1.78
2023-01-29T11:49:20.866Z,1.76
2023-01-29T11:50:19.649Z,1.78
2023-01-29T11:51:19.675Z,1.79
2023-01-29T11:52:20.039Z,1.78
2023-01-29T11:53:20.368Z,1.83
2023-01-29T11:54:20.652Z,1.90
2023-01-29T11:55:21.147Z,1.93
2023-01-29T11:56:21.019Z,1.91
2023-01-29T11:57:21.411Z,1.91
2023-01-29T11:58:21.802Z,1.91
2023-01-29T11:59:22.324Z,1.89
2023-01-29T12:00:22.125Z,1.89
2023-01-29T12:01:22.408Z,1.87
2023-01-29T12:02:23.761Z,1.87
2023-01-29T12:03:25.044Z,1.87
2023-01-29T12:04:24.458Z,1.89
2023-01-29T12:05:23.772Z,1.91
2023-01-29T12:06:24.087Z,1.91
2023-01-29T12:07:25.354Z,1.98
2023-01-29T12:08:24.590Z,1.99
2023-01-29T12:09:24.997Z,2.02
2023-01-29T12:10:25.293Z,2.02
2023-01-29T12:11:25.654Z,2.02
2023-01-29T12:12:25.941Z,2.08
2023-01-29T12:13:27.200Z,2.08
2023-01-29T12:14:26.436Z,2.08
2023-01-29T12:15:27.118Z,2.08
2023-01-29T12:16:26.929Z,2.06
2023-01-29T12:17:27.355Z,2.08
2023-01-29T12:18:27.768Z,2.09
2023-01-29T12:19:28.081Z,2.06
2023-01-29T12:20:28.365Z,2.09
2023-01-29T12:21:28.697Z,2.09
2023-01-29T12:22:29.256Z,2.08
2023-01-29T12:23:29.214Z,2.06
2023-01-29T12:24:29.485Z,2.01
2023-01-29T12:25:29.811Z,2.01
2023-01-29T12:26:30.101Z,2.02
2023-01-29T12:27:30.415Z,2.04
2023-01-29T12:28:30.819Z,2.04
2023-01-29T12:29:31.388Z,2.06
2023-01-29T12:30:31.225Z,2.09
2023-01-29T12:31:31.567Z,2.09
2023-01-29T12:32:31.962Z,2.13
2023-01-29T12:33:32.328Z,2.12
2023-01-29T12:34:32.704Z,2.10
2023-01-29T12:35:33.083Z,2.09
2023-01-29T12:36:33.400Z,2.09
2023-01-29T12:37:33.620Z,2.09
2023-01-29T12:38:33.859Z,2.09
2023-01-29T12:39:34.198Z,2.08
2023-01-29T12:40:34.583Z,2.06
2023-01-29T12:41:35.131Z,2.04
2023-01-29T12:42:34.936Z,2.04
2023-01-29T12:43:35.339Z,1.99
2023-01-29T12:44:35.684Z,1.99
2023-01-29T12:45:35.943Z,2.01
2023-01-29T12:46:36.449Z,2.04
2023-01-29T12:47:36.368Z,2.08
2023-01-29T12:48:36.748Z,2.08
2023-01-29T12:49:37.155Z,2.08
2023-01-29T12:50:37.245Z,2.09
2023-01-29T12:51:37.097Z,2.09
2023-01-29T12:52:37.466Z,2.12
2023-01-29T12:53:37.769Z,2.16
2023-01-29T12:54:38.948Z,2.17
2023-01-29T12:55:39.353Z,2.13
2023-01-29T12:56:38.739Z,2.12
2023-01-29T12:57:39.203Z,2.04
2023-01-29T12:58:39.084Z,2.02
2023-01-29T12:59:39.537Z,2.04
2023-01-29T13:00:39.323Z,2.04
2023-01-29T13:01:39.884Z,2.08
2023-01-29T13:02:39.774Z,2.13
2023-01-29T13:03:40.275Z,2.15